Terminal Aerodrome Forecast
Issued by NWS Portland, OR

Home | Current Version | Previous Version | Text Only | Print | Product List | Glossary On
Versions: 1 2 3 4 5 6 7 8 9 10 11 12 13 14 15 16 17 18 19 20 21 22 23 24 25 26 27 28
000
FTUS46 KPQR 180520
TAFHIO
TAF
KHIO 180520Z 1806/1906 00000KT 1SM BR BKN002
      TEMPO 1806/1810 1/4SM FG VV001
     FM181600 17011G20KT 5SM -RA BR SCT012 OVC018
     FM182100 18015G22KT P6SM -SHRA SCT022 BKN035
     FM190100 18018G25KT P6SM SCT015 BKN025=

USA.gov is the U.S. government's official web portal to all federal, state and local government web resources and services.